Station: Victoria River Downs

  Atmospheric Gas Attenuation - ITU Rec 676-11   --------------- db/100km ---------------
Date Time Temp RH % AH g/m3 Dew Point Wind Direction Speed kph Gust kph Barometer mB Rainfall Since 9am 24GHz 47GHz 76GHz 122GHz 134GHz 241GHz
11 22:40 27.5 37 9.79 11.5 4 4 1010.6 0 21.4 23.8 37.6 98.7 95.9 331.6
11 22:30 28.1 35 9.57 11.2 0 0 1010.6 0 20.9 23.4 36.5 96.0 92.7 320.4
11 22:20 28.3 35 9.68 11.4 0 2 1010.5 0 21.2 23.5 36.8 96.7 93.7 324.0
11 22:10 28.5 35 9.78 11.6 6 7 1010.3 0 21.4 23.6 37.1 97.4 94.6 327.1
11 22:00 28.4 35 9.73 11.5 9 13 1010.2 0 21.3 23.5 36.9 97.0 94.2 325.5
11 21:50 28.4 35 9.73 11.5 9 11 1010 0 21.3 23.5 36.9 97.0 94.2 325.4
11 21:40 29 33 9.48 11.1 11 17 1009.9 0 20.7 23.0 35.8 94.1 90.7 313.3
11 21:30 29.1 35 10.11 12.1 9 15 1009.8 0 22.0 23.8 37.9 99.6 97.6 337.5
11 21:20 28.8 38 10.8 13.1 7 11 1009.8 0 23.5 24.9 40.4 106.4 105.9 366.4
11 21:10 28.4 40 11.12 13.5 7 11 1009.8 0 24.1 25.5 41.8 110.0 110.1 381.3
11 21:00 28.4 42 11.68 14.3 6 11 1009.7 0 25.3 26.3 43.8 115.4 116.8 404.6
11 20:50 28.3 47 12.99 15.9 6 6 1009.5 0 28.0 28.3 48.7 128.5 132.9 461.0
11 20:40 29 41 11.78 14.4 4 6 1009.4 0 25.5 26.2 43.8 115.5 117.0 405.6
11 20:30 29.5 43 12.69 15.6 7 11 1009.4 0 27.3 27.4 46.9 123.6 127.2 441.3
11 20:20 28.9 49 14 17.4 7 9 1009.3 0 30.1 29.6 52.2 137.8 144.6 501.7
11 20:10 28.4 60 16.68 19.9 4 4 1009.1 0 35.8 34.2 63.4 167.7 181.2 629.4
11 20:00 28.9 60 17.14 20.4 0 0 1008.9 0 36.7 34.8 65.0 171.8 186.3 647.3
11 19:50 29.2 50 14.52 17.7 0 0 1008.8 0 31.2 30.3 54.0 142.7 150.6 522.9
11 19:40 29.4 53 15.56 18.8 0 0 1008.8 0 33.3 32.0 58.0 153.3 163.7 568.8
11 19:30 29.3 53 15.48 19 2 4 1008.6 0 33.2 31.8 57.8 152.6 162.9 565.7
11 19:20 29.8 55 16.5 19.8 4 4 1008.5 0 35.3 33.3 61.5 162.7 175.4 609.4
11 19:10 30.5 47 14.65 18.2 0 0 1008.3 0 31.3 30.1 53.6 141.6 149.7 519.9
11 19:00 30.8 45 14.25 17.8 0 0 1008.3 0 30.5 29.4 51.9 137.0 144.1 500.4
11 18:50 31.3 46 14.96 18.6 0 0 1008.2 0 31.9 30.3 54.3 143.4 152.1 528.3
11 18:40 32.4 33 11.38 14.5 0 0 1008.1 0 24.5 24.7 40.6 106.9 107.5 372.8
11 18:30 32.8 34 11.98 14.9 0 0 1008 0 25.7 25.4 42.5 111.9 113.8 394.6
11 18:20 34 31 11.64 14.5 0 0 1007.9 0 24.9 24.6 40.7 107.2 108.3 375.5
11 18:10 34.4 34 13.03 16.3 0 0 1007.9 0 27.7 26.4 45.2 119.4 123.4 428.4
11 18:00 34.8 28 10.96 13.6 0 0 1007.8 0 23.5 23.5 38.0 100.2 99.8 346.0
11 17:50 34.7 32 12.46 15.6 0 0 1007.7 0 26.5 25.5 43.1 113.7 116.4 404.2
11 17:40 34.9 35 13.77 17.2 2 4 1007.7 0 29.2 27.3 47.6 125.6 131.1 455.5
11 17:30 35 29 11.47 14.8 2 6 1007.7 0 24.5 24.1 39.6 104.4 105.1 364.4
11 17:20 34.1 30 11.32 14.1 2 2 1007.7 0 24.2 24.1 39.6 104.2 104.6 362.7
11 17:10 34.6 29 11.23 14 6 6 1007.7 0 24.0 23.9 39.0 102.8 103.0 357.1
11 17:00 35 27 10.68 13.2 6 7 1007.8 0 22.9 23.1 37.0 97.5 96.6 334.7
11 16:50 35.7 25 10.25 12.6 6 7 1007.8 0 22.0 22.3 35.4 93.0 91.3 316.2
11 16:40 36.6 23 9.88 12.7 7 11 1007.8 0 21.2 21.7 33.8 89.0 86.5 299.6
11 16:30 37.1 26 11.46 14.4 6 9 1007.7 0 24.4 23.6 38.6 101.7 102.3 354.9
11 16:20 37.4 23 10.3 12.8 4 6 1007.7 0 22.0 22.0 34.8 91.6 89.9 311.6
11 16:10 37.3 26 11.58 14.6 0 0 1007.7 0 24.6 23.7 38.9 102.5 103.3 358.5
11 16:00 37.2 25 11.08 13.9 4 7 1007.8 0 23.6 23.0 37.3 98.3 98.2 340.6
11 15:50 36.6 26 11.17 14 4 6 1007.9 0 23.8 23.3 37.9 99.8 99.9 346.4
11 15:40 36.9 25 10.91 14.2 4 4 1007.9 0 23.2 22.9 36.9 97.3 96.8 335.6
11 15:30 37.2 25 11.08 13.9 6 11 1007.9 0 23.6 23.0 37.3 98.3 98.2 340.6
11 15:20 36.3 27 11.42 14.3 6 7 1008 0 24.3 23.7 38.9 102.4 102.9 357.0
11 15:10 36.9 25 10.91 14.2 6 9 1008.1 0 23.2 22.9 36.9 97.3 96.8 335.6
11 15:00 36.7 25 10.8 13.5 6 9 1008.2 0 23.0 22.8 36.7 96.6 95.9 332.5
11 14:50 37 25 10.97 13.7 4 4 1008.3 0 23.4 23.0 37.1 97.7 97.3 337.5
11 14:40 37.7 27 12.28 15.5 7 9 1008.4 0 26.0 24.5 41.0 108.1 110.3 383.1
11 14:30 36.6 26 11.17 14 7 15 1008.5 0 23.8 23.3 37.9 99.9 99.9 346.5
11 14:20 36.8 25 10.85 14.1 6 6 1008.6 0 23.1 22.9 36.8 96.9 96.3 334.0
11 14:10 36.8 24 10.42 13.5 4 6 1008.7 0 22.2 22.3 35.5 93.3 91.9 318.4
11 14:00 36.9 26 11.35 14.8 6 7 1008.8 0 24.1 23.5 38.4 101.1 101.5 352.0
11 13:50 36.4 27 11.48 14.4 6 7 1008.9 0 24.4 23.8 39.0 102.8 103.5 359.0
11 13:40 36.1 26 10.89 13.6 6 6 1009 0 23.2 23.1 37.3 98.1 97.6 338.4
11 13:30 37.1 27 11.9 15 4 9 1009.2 0 25.2 24.2 40.1 105.6 107.1 371.8
11 13:20 35.8 27 11.13 13.9 7 7 1009.3 0 23.7 23.5 38.2 100.6 100.6 348.6
11 13:10 36.3 29 12.27 15.9 9 11 1009.5 0 26.0 24.9 41.7 110.0 112.2 389.6
11 13:00 36 29 12.08 15.2 6 11 1009.6 0 25.7 24.7 41.2 108.7 110.6 383.8
11 12:50 35.5 26 10.55 13.6 7 7 1009.7 0 22.6 22.8 36.5 96.0 94.8 328.4
11 12:40 35.5 28 11.37 14.2 0 2 1009.8 0 24.3 23.9 39.1 103.1 103.5 359.1
11 12:30 35.2 29 11.59 14.5 6 7 1010 0 24.7 24.3 40.0 105.4 106.3 368.8
11 12:20 35.1 29 11.53 14.9 4 6 1010.2 0 24.6 24.2 39.9 105.0 105.8 367.0
11 12:10 35.6 29 11.83 15.3 6 7 1010.4 0 25.2 24.5 40.6 107.1 108.5 376.3
11 12:00 34.9 29 11.41 14.7 4 7 1010.5 0 24.4 24.1 39.6 104.2 104.8 363.4
11 11:50 34.6 30 11.62 14.5 4 4 1010.8 0 24.8 24.5 40.4 106.5 107.5 372.9
11 11:40 34.7 30 11.68 14.6 4 4 1010.8 0 24.9 24.6 40.6 106.9 108.0 374.7
11 11:30 33.9 30 11.2 13.9 4 7 1010.9 0 24.0 24.1 39.4 103.7 103.8 359.9
11 11:20 33.8 30 11.14 13.8 4 4 1011 0 23.9 24.1 39.2 103.3 103.3 358.0
11 11:10 33.7 30 11.09 13.7 6 6 1011.1 0 23.8 24.0 39.1 103.0 102.9 356.6
11 11:00 33.7 34 12.56 15.7 2 7 1011 0 26.8 26.1 44.1 116.3 119.4 414.2
11 10:50 32.9 33 11.69 14.5 0 0 1011 0 25.1 25.1 41.5 109.4 110.6 383.5
11 10:40 32.6 32 11.16 13.8 6 7 1011 0 24.0 24.4 39.9 105.0 105.1 364.1
11 10:30 32.3 31 10.64 13 6 9 1011.1 0 22.9 23.8 38.3 100.7 99.7 345.2
11 10:20 31.5 33 10.85 13.7 4 6 1011.1 0 23.4 24.3 39.4 103.6 103.0 356.8
11 10:10 31.2 35 11.32 13.9 4 6 1011.2 0 24.4 25.0 41.1 108.3 108.7 376.8
11 10:00 30.7 38 11.97 14.8 4 9 1011.2 0 25.8 26.1 43.7 115.1 117.0 405.5
11 09:50 30.2 39 11.96 14.7 6 7 1011.3 0 25.8 26.2 43.9 115.7 117.6 407.6
11 09:40 29.7 40 11.94 15 7 7 1011.3 0 25.8 26.3 44.1 116.2 118.1 409.3
11 09:30 29 41 11.78 14.4 9 15 1011.2 0 25.5 26.3 43.9 115.7 117.2 406.2
11 09:20 28.4 43 11.95 14.6 11 15 1011.3 0 25.9 26.7 44.9 118.2 120.2 416.4
11 09:10 28.1 39 10.67 13.2 6 7 1011 0 23.2 24.9 40.4 106.2 105.4 364.6
11 09:00 27.4 43 11.31 13.7 13 28 1011 0 24.6 26.1 43.0 113.3 113.9 394.4
11 08:50 27 50 12.87 15.7 11 15 1011.1 0 27.9 28.6 49.1 129.6 133.8 463.9
11 08:40 26.5 52 13.02 16.1 0 0 1010.5 0 28.2 28.9 50.0 131.9 136.5 473.3
11 08:30 25.2 55 12.8 15.5 0 4 1010.6 0 27.8 29.0 50.0 131.8 135.9 471.2
11 08:20 24.7 59 13.35 16.2 0 0 1010.7 0 29.0 30.1 52.5 138.5 144.1 499.5
11 08:10 24 62 13.49 16.3 4 4 1010.8 0 29.4 30.6 53.5 141.3 147.3 510.6
11 08:00 23.6 67 14.25 17.1 2 6 1010.7 0 31.0 32.0 57.0 150.4 158.4 549.4
11 07:50 22.5 68 13.58 16.3 4 4 1010.5 0 29.7 31.2 54.9 145.0 151.4 524.7
11 07:40 22.2 72 14.13 16.9 2 4 1010.3 0 30.9 32.3 57.5 151.7 159.6 553.4
11 07:30 21.4 73 13.68 16.4 0 0 1010.2 0 30.0 31.8 56.1 148.1 154.9 537.0
11 07:20 21 71 13.01 15.5 0 0 1010.1 0 28.6 30.8 53.6 141.3 146.4 507.1
11 07:10 20.4 75 13.27 15.8 0 0 1010.1 0 29.2 31.4 55.1 145.3 151.2 523.7
11 07:00 20 75 12.96 15.4 4 6 1010.1 0 28.5 31.1 54.0 142.5 147.6 511.2
11 06:50 20 76 13.13 15.6 4 4 1010.1 0 28.9 31.3 54.8 144.5 150.0 519.6
11 06:40 20.2 75 13.11 15.6 4 4 1009.8 0 28.9 31.2 54.5 143.8 149.3 517.1
11 06:30 20.5 76 13.52 16.1 4 6 1009.7 0 29.7 31.8 56.1 148.0 154.4 535.2
11 06:20 20.5 75 13.34 15.9 0 0 1009.6 0 29.3 31.5 55.3 145.9 151.9 526.3
11 06:10 20.3 76 13.37 15.9 0 0 1009.5 0 29.4 31.6 55.6 146.6 152.7 529.1

Last Refresh: 11-Apr-2021 22:51:51

Bureau of Meteorology